createdAt,value
2023-02-18T00:01:56.838Z,99138.66
2023-02-18T00:04:26.742Z,99145.59
2023-02-18T00:06:56.538Z,99159.34
2023-02-18T00:09:25.212Z,99152.59
2023-02-18T00:11:53.820Z,99165.50
2023-02-18T00:14:24.216Z,99175.00
2023-02-18T00:16:52.633Z,99167.38
2023-02-18T00:19:22.196Z,99178.53
2023-02-18T00:21:51.992Z,99181.13
2023-02-18T00:24:20.423Z,99189.72
2023-02-18T00:26:53.032Z,99182.09
2023-02-18T00:29:22.460Z,99194.94
2023-02-18T00:31:50.935Z,99196.69
2023-02-18T00:34:19.553Z,99189.06
2023-02-18T00:36:47.972Z,99199.34
2023-02-18T00:39:17.773Z,99200.25
2023-02-18T00:41:46.698Z,99197.69
2023-02-18T00:44:19.395Z,99204.53
2023-02-18T00:46:49.879Z,99208.84
2023-02-18T00:49:19.197Z,99200.34
2023-02-18T00:51:47.760Z,99191.78
2023-02-18T00:54:17.525Z,99190.13
2023-02-18T00:56:45.984Z,99196.09
2023-02-18T00:59:14.389Z,99202.97
2023-02-18T01:01:42.880Z,99219.22
2023-02-18T01:04:11.373Z,99192.78
2023-02-18T01:06:40.111Z,99208.16
2023-02-18T01:09:08.674Z,99198.75
2023-02-18T01:11:40.251Z,99208.16
2023-02-18T01:14:08.833Z,99216.72
2023-02-18T01:16:37.455Z,99212.47
2023-02-18T01:19:05.909Z,99208.22
2023-02-18T01:21:34.250Z,99211.59
2023-02-18T01:24:02.931Z,99217.63
2023-02-18T01:26:32.812Z,99224.41
2023-02-18T01:29:02.681Z,99215.94
2023-02-18T01:31:31.361Z,99209.09
2023-02-18T01:34:00.037Z,99221.06
2023-02-18T01:36:28.476Z,99215.06
2023-02-18T01:38:56.862Z,99198.03
2023-02-18T01:41:25.359Z,99204.00
2023-02-18T01:44:14.828Z,99198.88
2023-02-18T01:46:43.286Z,99199.75
2023-02-18T01:49:15.187Z,99199.78
2023-02-18T01:51:48.459Z,99199.81
2023-02-18T01:54:24.636Z,99198.94
2023-02-18T01:56:58.438Z,99181.06
2023-02-18T01:59:32.520Z,99180.22
2023-02-18T02:02:01.427Z,99185.31
2023-02-18T02:04:30.123Z,99188.75
2023-02-18T02:06:58.520Z,99187.03
2023-02-18T02:09:29.581Z,99181.94
2023-02-18T02:12:41.874Z,99179.41
2023-02-18T02:15:43.828Z,99177.72
2023-02-18T02:18:41.165Z,99171.75
2023-02-18T02:21:42.921Z,99172.66
2023-02-18T02:25:03.196Z,99160.78
2023-02-18T02:28:10.172Z,99167.66
2023-02-18T02:31:26.890Z,99163.47
2023-02-18T02:34:40.593Z,99166.91
2023-02-18T02:37:17.481Z,99157.50
2023-02-18T02:40:04.341Z,99185.72
2023-02-18T02:42:47.997Z,99190.00
2023-02-18T02:45:28.585Z,99165.28
2023-02-18T02:48:07.083Z,99190.03
2023-02-18T02:50:43.759Z,99174.69
2023-02-18T02:53:20.267Z,99202.81
2023-02-18T02:55:48.917Z,99201.16
2023-02-18T02:58:20.489Z,99210.53
2023-02-18T03:01:12.235Z,99213.97
2023-02-18T03:04:24.131Z,99196.03
2023-02-18T03:07:35.043Z,99215.69
2023-02-18T03:10:29.476Z,99215.72
2023-02-18T03:13:08.847Z,99218.28
2023-02-18T03:15:44.902Z,99215.72
2023-02-18T03:18:21.956Z,99239.63
2023-02-18T03:20:56.505Z,99219.16
2023-02-18T03:23:34.057Z,99219.19
2023-02-18T03:26:05.440Z,99226.88
2023-02-18T03:28:35.104Z,99219.22
2023-02-18T03:31:10.897Z,99222.66
2023-02-18T03:33:46.227Z,99233.72
2023-02-18T03:36:15.398Z,99249.94
2023-02-18T03:38:52.386Z,99241.44
2023-02-18T03:41:21.519Z,99241.44
2023-02-18T03:43:53.836Z,99238.88
2023-02-18T03:46:22.531Z,99247.44
2023-02-18T03:48:51.510Z,99246.59
2023-02-18T03:51:20.195Z,99248.28
2023-02-18T03:53:50.146Z,99234.66
2023-02-18T03:56:19.121Z,99250.00
2023-02-18T03:58:47.877Z,99223.56
2023-02-18T04:01:17.029Z,99259.41
2023-02-18T04:03:45.778Z,99250.88
2023-02-18T04:06:14.835Z,99267.94
2023-02-18T04:08:43.267Z,99267.94
2023-02-18T04:11:13.116Z,99275.63
2023-02-18T04:13:41.837Z,99265.44
2023-02-18T04:16:10.931Z,99261.16
2023-02-18T04:18:39.688Z,99270.56
2023-02-18T04:21:08.247Z,99267.16
2023-02-18T04:23:36.935Z,99258.63
2023-02-18T04:26:06.154Z,99252.66
2023-02-18T04:28:36.292Z,99270.53
2023-02-18T04:31:05.081Z,99267.16
2023-02-18T04:33:33.976Z,99270.53
2023-02-18T04:36:02.433Z,99281.63
2023-02-18T04:38:30.995Z,99269.69
2023-02-18T04:40:59.454Z,99275.69
2023-02-18T04:43:28.063Z,99273.97
2023-02-18T04:45:58.026Z,99285.91
2023-02-18T04:48:26.715Z,99269.72
2023-02-18T04:50:55.249Z,99271.47
2023-02-18T04:53:24.108Z,99265.47
2023-02-18T04:55:53.700Z,99265.50
2023-02-18T04:58:25.567Z,99260.41
2023-02-18T05:00:54.559Z,99279.13
2023-02-18T05:03:24.438Z,99271.47
2023-02-18T05:05:53.080Z,99279.16
2023-02-18T05:08:21.705Z,99305.56
2023-02-18T05:10:50.281Z,99289.38
2023-02-18T05:13:18.883Z,99295.34
2023-02-18T05:15:47.470Z,99306.44
2023-02-18T05:18:16.231Z,99278.31
2023-02-18T05:20:47.050Z,99285.16
2023-02-18T05:23:16.054Z,99299.63
2023-02-18T05:25:44.749Z,99300.50
2023-02-18T05:28:13.417Z,99298.78
2023-02-18T05:30:42.080Z,99296.22
2023-02-18T05:33:10.670Z,99307.31
2023-02-18T05:35:39.278Z,99295.41
2023-02-18T05:38:10.021Z,99313.25
2023-02-18T05:40:38.798Z,99315.84
2023-02-18T05:43:07.447Z,99323.50
2023-02-18T05:45:36.150Z,99326.06
2023-02-18T05:48:05.039Z,99320.94
2023-02-18T05:50:33.634Z,99317.53
2023-02-18T05:53:02.456Z,99319.28
2023-02-18T05:55:33.251Z,99319.28
2023-02-18T05:58:01.718Z,99322.66
2023-02-18T06:00:31.966Z,99332.06
2023-02-18T06:03:00.919Z,99334.59
2023-02-18T06:05:29.816Z,99329.47
2023-02-18T06:07:58.438Z,99333.72
2023-02-18T06:10:26.979Z,99330.34
2023-02-18T06:12:56.996Z,99328.63
2023-02-18T06:15:25.523Z,99329.47
2023-02-18T06:17:53.983Z,99349.91
2023-02-18T06:20:22.548Z,99347.38
2023-02-18T06:22:51.135Z,99351.59
2023-02-18T06:25:19.648Z,99344.78
2023-02-18T06:27:48.222Z,99343.94
2023-02-18T06:30:18.849Z,99349.06
2023-02-18T06:32:47.471Z,99359.28
2023-02-18T06:35:16.017Z,99366.91
2023-02-18T06:37:44.966Z,99357.53
2023-02-18T06:40:14.259Z,99375.44
2023-02-18T06:42:42.946Z,99380.56
2023-02-18T06:45:11.997Z,99357.53
2023-02-18T06:47:42.077Z,99368.66
2023-02-18T06:50:11.336Z,99389.06
2023-02-18T06:52:39.743Z,99386.53
2023-02-18T06:55:10.267Z,99386.53
2023-02-18T06:57:38.818Z,99393.34
2023-02-18T07:00:09.333Z,99395.06
2023-02-18T07:02:38.014Z,99400.16
2023-02-18T07:05:08.697Z,99394.16
2023-02-18T07:07:37.282Z,99396.72
2023-02-18T07:10:07.466Z,99380.56
2023-02-18T07:12:36.350Z,99392.47
2023-02-18T07:15:05.346Z,99384.78
2023-02-18T07:17:33.909Z,99388.16
2023-02-18T07:20:02.561Z,99395.84
2023-02-18T07:22:32.528Z,99389.00
2023-02-18T07:25:01.079Z,99386.47
2023-02-18T07:27:29.692Z,99383.06
2023-02-18T07:29:58.471Z,99390.72
2023-02-18T07:32:27.062Z,99401.78
2023-02-18T07:34:55.719Z,99385.59
2023-02-18T07:37:24.536Z,99394.09
2023-02-18T07:39:54.490Z,99390.63
2023-02-18T07:42:23.634Z,99381.22
2023-02-18T07:44:52.480Z,99381.16
2023-02-18T07:47:21.025Z,99391.31
2023-02-18T07:49:49.673Z,99396.38
2023-02-18T07:52:18.220Z,99402.38
2023-02-18T07:54:46.916Z,99399.75
2023-02-18T07:57:16.792Z,99398.88
2023-02-18T07:59:45.638Z,99391.19
2023-02-18T08:02:20.660Z,99401.41
2023-02-18T08:04:51.419Z,99410.81
2023-02-18T08:07:22.885Z,99392.88
2023-02-18T08:09:52.061Z,99402.31
2023-02-18T08:12:21.955Z,99404.88
2023-02-18T08:14:51.369Z,99404.91
2023-02-18T08:17:19.944Z,99412.56
2023-02-18T08:19:48.452Z,99411.69
2023-02-18T08:22:17.466Z,99409.97
2023-02-18T08:24:46.066Z,99415.94
2023-02-18T08:27:14.728Z,99413.34
2023-02-18T08:29:44.602Z,99413.34
2023-02-18T08:32:13.589Z,99420.16
2023-02-18T08:34:42.275Z,99410.69
2023-02-18T08:37:11.153Z,99406.41
2023-02-18T08:39:41.190Z,99402.94
2023-02-18T08:42:10.052Z,99408.88
2023-02-18T08:44:38.688Z,99405.44
2023-02-18T08:48:17.372Z,99416.53
2023-02-18T08:49:57.145Z,99419.09
2023-02-18T08:52:26.641Z,99430.19
2023-02-18T08:54:55.187Z,99432.75
2023-02-18T08:57:23.724Z,99421.63
2023-02-18T08:59:52.383Z,99423.28
2023-02-18T09:02:22.820Z,99434.38
2023-02-18T09:04:51.413Z,99430.91
2023-02-18T09:07:21.033Z,99434.25
2023-02-18T09:09:49.462Z,99435.03
2023-02-18T09:12:17.867Z,99426.50
2023-02-18T09:14:49.307Z,99442.75
2023-02-18T09:17:18.187Z,99441.84
2023-02-18T09:19:48.526Z,99448.66
2023-02-18T09:22:17.914Z,99453.81
2023-02-18T09:24:48.712Z,99452.06
2023-02-18T09:27:17.267Z,99459.69
2023-02-18T09:29:48.545Z,99466.38
2023-02-18T09:32:32.564Z,99479.16
2023-02-18T09:35:02.761Z,99459.50
2023-02-18T09:37:31.358Z,99464.56
2023-02-18T09:40:00.210Z,99465.44
2023-02-18T09:42:35.352Z,99459.50
2023-02-18T09:45:08.358Z,99468.09
2023-02-18T09:47:39.275Z,99464.72
2023-02-18T09:50:17.234Z,99475.84
2023-02-18T09:52:45.724Z,99477.56
2023-02-18T09:55:24.383Z,99484.41
2023-02-18T09:57:57.191Z,99493.81
2023-02-18T10:00:33.388Z,99490.47
2023-02-18T10:03:07.017Z,99480.22
2023-02-18T10:05:38.379Z,99486.22
2023-02-18T10:08:18.210Z,99492.25
2023-02-18T10:10:49.456Z,99500.84
2023-02-18T10:13:21.695Z,99505.16
2023-02-18T10:15:51.857Z,99497.47
2023-02-18T10:21:13.491Z,99505.16
2023-02-18T10:23:48.661Z,99498.25
2023-02-18T10:26:19.763Z,99500.66
2023-02-18T10:28:48.412Z,99497.22
2023-02-18T10:31:22.210Z,99494.63
2023-02-18T10:34:00.274Z,99491.03
2023-02-18T10:36:38.544Z,99490.94
2023-02-18T10:39:42.443Z,99479.53
2023-02-18T10:42:34.255Z,99476.72
2023-02-18T10:45:17.893Z,99487.69
2023-02-18T10:48:04.651Z,99479.06
2023-02-18T10:50:39.012Z,99466.13
2023-02-18T10:53:15.313Z,99462.66
2023-02-18T10:55:46.823Z,99451.53
2023-02-18T10:58:33.676Z,99453.41
2023-02-18T11:01:05.674Z,99461.28
2023-02-18T11:04:09.072Z,99458.97
2023-02-18T11:06:43.106Z,99474.53
2023-02-18T11:09:32.550Z,99471.25
2023-02-18T11:12:09.184Z,99460.22
2023-02-18T11:14:45.079Z,99457.78
2023-02-18T11:17:29.109Z,99445.03
2023-02-18T11:19:59.800Z,99467.28
2023-02-18T11:22:33.130Z,99466.47
2023-02-18T11:25:06.215Z,99445.13
2023-02-18T11:27:43.272Z,99440.72
2023-02-18T11:30:22.607Z,99439.63
2023-02-18T11:32:54.358Z,99440.38
2023-02-18T11:35:27.085Z,99439.34
2023-02-18T11:38:01.390Z,99432.50
2023-02-18T11:40:34.450Z,99434.19
2023-02-18T11:43:14.839Z,99429.06
2023-02-18T11:45:44.151Z,99427.28
2023-02-18T11:48:19.888Z,99416.84
2023-02-18T11:50:53.452Z,99418.44
2023-02-18T11:53:32.081Z,99429.84
2023-02-18T11:56:04.644Z,99422.66
2023-02-18T11:58:39.956Z,99413.97
2023-02-18T12:01:15.784Z,99421.34
2023-02-18T12:03:50.343Z,99401.47
2023-02-18T12:06:25.961Z,99416.28
2023-02-18T12:09:02.006Z,99402.03
2023-02-18T12:11:37.626Z,99401.34
2023-02-18T12:14:12.939Z,99420.22
2023-02-18T12:16:58.280Z,99402.09
2023-02-18T12:20:08.861Z,99409.72
2023-02-18T12:22:44.462Z,99391.69
2023-02-18T12:25:30.606Z,99403.34
2023-02-18T12:28:27.297Z,99416.69
2023-02-18T12:31:36.584Z,99410.34
2023-02-18T12:34:23.757Z,99391.75
2023-02-18T12:37:07.800Z,99380.81
2023-02-18T12:39:59.397Z,99377.44
2023-02-18T12:42:46.525Z,99379.06
2023-02-18T12:45:50.787Z,99382.44
2023-02-18T12:48:52.807Z,99377.34
2023-02-18T12:51:36.432Z,99370.56
2023-02-18T12:54:34.022Z,99374.03
2023-02-18T12:57:37.664Z,99368.13
2023-02-18T13:00:50.916Z,99378.31
2023-02-18T13:04:04.025Z,99371.28
2023-02-18T13:07:18.608Z,99369.59
2023-02-18T13:10:19.975Z,99366.31
2023-02-18T13:12:56.958Z,99356.97
2023-02-18T13:15:37.861Z,99354.56
2023-02-18T13:18:15.688Z,99358.25
2023-02-18T13:20:48.946Z,99372.16
2023-02-18T13:23:22.373Z,99357.81
2023-02-18T13:26:00.798Z,99349.38
2023-02-18T13:28:39.560Z,99349.50
2023-02-18T13:31:26.785Z,99359.94
2023-02-18T13:34:05.262Z,99351.56
2023-02-18T13:36:53.042Z,99354.28
2023-02-18T13:39:24.556Z,99355.25
2023-02-18T13:42:14.220Z,99372.44
2023-02-18T13:45:26.579Z,99370.84
2023-02-18T13:47:56.114Z,99363.19
2023-02-18T13:50:32.866Z,99367.56
2023-02-18T13:53:34.239Z,99370.16
2023-02-18T13:56:09.479Z,99359.13
2023-02-18T13:58:43.662Z,99360.00
2023-02-18T14:01:24.650Z,99364.34
2023-02-18T14:04:02.330Z,99366.91
2023-02-18T14:06:38.064Z,99368.66
2023-02-18T14:09:42.768Z,99366.97
2023-02-18T14:12:44.399Z,99355.06
2023-02-18T14:15:54.851Z,99360.22
2023-02-18T14:18:59.483Z,99350.84
2023-02-18T14:21:41.115Z,99346.56
2023-02-18T14:24:13.112Z,99360.28
2023-02-18T14:26:48.109Z,99356.03
2023-02-18T14:29:31.482Z,99338.13
2023-02-18T14:32:05.432Z,99337.31
2023-02-18T14:35:21.580Z,99327.94
2023-02-18T14:38:26.590Z,99337.38
2023-02-18T14:41:36.278Z,99334.81
2023-02-18T14:44:38.215Z,99324.59
2023-02-18T14:47:31.604Z,99323.75
2023-02-18T14:50:03.913Z,99322.91
2023-02-18T14:52:39.972Z,99320.34
2023-02-18T14:55:19.102Z,99319.50
2023-02-18T14:57:53.944Z,99326.31
2023-02-18T15:00:25.721Z,99328.88
2023-02-18T15:02:56.544Z,99329.72
2023-02-18T15:05:29.765Z,99325.47
2023-02-18T15:08:03.045Z,99328.06
2023-02-18T15:10:42.991Z,99330.66
2023-02-18T15:13:19.171Z,99334.94
2023-02-18T15:15:54.340Z,99340.13
2023-02-18T15:18:34.738Z,99351.25
2023-02-18T15:21:04.908Z,99345.31
2023-02-18T15:23:40.961Z,99355.63
2023-02-18T15:26:15.188Z,99336.06
2023-02-18T15:28:55.263Z,99352.31
2023-02-18T15:31:28.254Z,99346.38
2023-02-18T15:33:57.164Z,99346.41
2023-02-18T15:36:28.267Z,99347.25
2023-02-18T15:39:00.180Z,99354.97
2023-02-18T15:41:29.801Z,99350.75
2023-02-18T15:44:09.316Z,99352.47
2023-02-18T15:46:38.259Z,99347.41
2023-02-18T15:49:09.865Z,99346.56
2023-02-18T15:51:39.006Z,99348.28
2023-02-18T15:54:17.154Z,99345.72
2023-02-18T15:56:48.178Z,99345.72
2023-02-18T15:59:21.892Z,99348.28
2023-02-18T16:01:53.552Z,99354.22
2023-02-18T16:04:23.368Z,99351.69
2023-02-18T16:06:56.482Z,99348.28
2023-02-18T16:09:32.949Z,99350.84
2023-02-18T16:12:05.088Z,99349.13
2023-02-18T16:14:37.970Z,99344.91
2023-02-18T16:17:16.797Z,99356.78
2023-02-18T16:20:04.072Z,99347.44
2023-02-18T16:22:44.193Z,99347.44
2023-02-18T16:25:24.261Z,99352.56
2023-02-18T16:27:56.592Z,99349.13
2023-02-18T16:30:27.924Z,99343.19
2023-02-18T16:32:58.030Z,99340.66
2023-02-18T16:35:47.463Z,99346.59
2023-02-18T16:38:19.366Z,99350.84
2023-02-18T16:40:50.071Z,99349.13
2023-02-18T16:43:20.689Z,99348.28
2023-02-18T16:45:51.941Z,99352.56
2023-02-18T16:48:27.666Z,99353.41
2023-02-18T16:50:56.495Z,99338.06
2023-02-18T16:53:25.024Z,99347.44
2023-02-18T16:55:55.028Z,99347.44
2023-02-18T16:58:24.205Z,99344.91
2023-02-18T17:00:53.511Z,99337.22
2023-02-18T17:03:22.799Z,99347.44
2023-02-18T17:05:51.280Z,99346.56
2023-02-18T17:08:23.915Z,99345.72
2023-02-18T17:10:58.368Z,99350.00
2023-02-18T17:13:29.667Z,99345.72
2023-02-18T17:16:00.303Z,99332.97
2023-02-18T17:18:28.790Z,99330.44
2023-02-18T17:20:58.196Z,99325.31
2023-02-18T17:23:26.778Z,99328.72
2023-02-18T17:25:56.585Z,99341.47
2023-02-18T17:28:25.072Z,99331.25
2023-02-18T17:30:59.409Z,99335.53
2023-02-18T17:33:29.361Z,99341.47
2023-02-18T17:35:57.837Z,99337.22
2023-02-18T17:38:27.536Z,99344.03
2023-02-18T17:40:57.410Z,99344.03
2023-02-18T17:43:26.014Z,99337.25
2023-02-18T17:45:57.621Z,99340.63
2023-02-18T17:48:27.087Z,99338.94
2023-02-18T17:50:55.630Z,99327.84
2023-02-18T17:53:24.332Z,99337.25
2023-02-18T17:55:53.713Z,99325.31
2023-02-18T17:58:23.871Z,99328.72
2023-02-18T18:00:56.290Z,99328.72
2023-02-18T18:03:25.530Z,99323.63
2023-02-18T18:05:54.586Z,99321.06
2023-02-18T18:08:23.110Z,99313.41
2023-02-18T18:11:07.785Z,99314.25
2023-02-18T18:13:39.189Z,99310.84
2023-02-18T18:16:08.108Z,99318.53
2023-02-18T18:18:37.075Z,99304.06
2023-02-18T18:21:06.453Z,99313.41
2023-02-18T18:23:34.991Z,99310.00
2023-02-18T18:26:03.564Z,99308.31
2023-02-18T18:28:33.307Z,99310.84
2023-02-18T18:31:03.411Z,99306.59
2023-02-18T18:33:34.975Z,99312.53
2023-02-18T18:36:03.923Z,99319.31
2023-02-18T18:38:32.526Z,99310.84
2023-02-18T18:41:01.074Z,99311.69
2023-02-18T18:43:39.328Z,99312.53
2023-02-18T18:46:09.619Z,99310.00
2023-02-18T18:48:38.150Z,99305.72
2023-02-18T18:51:07.591Z,99310.81
2023-02-18T18:53:37.622Z,99302.31
2023-02-18T18:56:09.416Z,99299.78
2023-02-18T18:58:37.820Z,99305.72
2023-02-18T19:01:14.618Z,99311.66
2023-02-18T19:03:43.526Z,99323.53
2023-02-18T19:06:12.422Z,99323.53
2023-02-18T19:08:40.899Z,99338.00
2023-02-18T19:11:12.029Z,99335.47
2023-02-18T19:13:40.922Z,99343.94
2023-02-18T19:16:19.911Z,99357.53
2023-02-18T19:18:49.105Z,99360.94
2023-02-18T19:21:17.925Z,99355.81
2023-02-18T19:23:46.345Z,99355.84
2023-02-18T19:26:17.964Z,99361.78
2023-02-18T19:28:47.002Z,99364.34
2023-02-18T19:31:16.951Z,99377.91
2023-02-18T19:33:47.312Z,99371.13
2023-02-18T19:36:16.788Z,99366.00
2023-02-18T19:38:46.029Z,99365.16
2023-02-18T19:41:18.023Z,99369.41
2023-02-18T19:43:47.853Z,99381.34
2023-02-18T19:46:20.592Z,99375.38
2023-02-18T19:48:51.116Z,99377.09
2023-02-18T19:51:20.697Z,99386.44
2023-02-18T19:53:49.463Z,99388.97
2023-02-18T19:56:17.978Z,99401.72
2023-02-18T19:58:46.391Z,99400.03
2023-02-18T20:01:16.176Z,99401.72
2023-02-18T20:03:47.309Z,99417.88
2023-02-18T20:06:17.979Z,99428.06
2023-02-18T20:08:46.570Z,99428.06
2023-02-18T20:11:15.288Z,99429.75
2023-02-18T20:13:43.883Z,99433.16
2023-02-18T20:16:12.795Z,99438.25
2023-02-18T20:18:41.446Z,99435.69
2023-02-18T20:21:13.169Z,99439.94
2023-02-18T20:23:41.826Z,99445.03
2023-02-18T20:26:11.102Z,99439.94
2023-02-18T20:28:39.776Z,99444.19
2023-02-18T20:31:09.970Z,99447.59
2023-02-18T20:33:39.114Z,99451.81
2023-02-18T20:36:08.748Z,99464.56
2023-02-18T20:38:39.679Z,99464.56
2023-02-18T20:41:11.500Z,99470.50
2023-02-18T20:43:40.411Z,99470.53
2023-02-18T20:46:12.405Z,99471.41
2023-02-18T20:48:41.323Z,99464.59
2023-02-18T20:51:12.820Z,99469.72
2023-02-18T20:53:44.101Z,99468.91
2023-02-18T20:56:13.181Z,99479.13
2023-02-18T20:58:42.359Z,99479.13
2023-02-18T21:01:13.658Z,99481.66
2023-02-18T21:03:43.605Z,99479.13
2023-02-18T21:06:15.534Z,99488.44
2023-02-18T21:08:47.736Z,99491.00
2023-02-18T21:11:19.403Z,99498.63
2023-02-18T21:13:49.432Z,99496.06
2023-02-18T21:16:19.772Z,99501.97
2023-02-18T21:18:48.845Z,99496.88
2023-02-18T21:21:19.891Z,99500.28
2023-02-18T21:23:50.184Z,99511.31
2023-02-18T21:26:21.574Z,99516.41
2023-02-18T21:28:52.273Z,99514.72
2023-02-18T21:31:25.502Z,99520.69
2023-02-18T21:33:54.571Z,99521.53
2023-02-18T21:36:23.366Z,99525.78
2023-02-18T21:38:58.542Z,99523.22
2023-02-18T21:41:29.406Z,99530.88
2023-02-18T21:43:59.567Z,99532.56
2023-02-18T21:46:30.449Z,99534.25
2023-02-18T21:49:10.476Z,99551.22
2023-02-18T21:52:08.331Z,99549.47
2023-02-18T21:54:40.841Z,99539.22
2023-02-18T21:57:13.879Z,99551.97
2023-02-18T21:59:44.033Z,99568.06
2023-02-18T22:02:18.659Z,99575.66
2023-02-18T22:04:48.235Z,99584.06
2023-02-18T22:07:18.092Z,99579.81
2023-02-18T22:09:48.984Z,99599.25
2023-02-18T22:12:18.501Z,99606.88
2023-02-18T22:14:47.625Z,99594.09
2023-02-18T22:17:21.599Z,99590.63
2023-02-18T22:19:50.344Z,99596.56
2023-02-18T22:22:18.996Z,99593.09
2023-02-18T22:24:49.131Z,99606.66
2023-02-18T22:27:19.428Z,99610.00
2023-02-18T22:29:48.336Z,99610.81
2023-02-18T22:32:17.652Z,99611.63
2023-02-18T22:34:46.305Z,99613.25
2023-02-18T22:37:14.854Z,99614.09
2023-02-18T22:39:43.537Z,99623.41
2023-02-18T22:42:13.471Z,99627.63
2023-02-18T22:44:44.095Z,99620.78
2023-02-18T22:47:12.709Z,99629.22
2023-02-18T22:49:41.803Z,99630.03
2023-02-18T22:52:10.650Z,99633.44
2023-02-18T22:54:41.590Z,99629.16
2023-02-18T22:57:09.993Z,99619.81
2023-02-18T22:59:39.831Z,99635.94
2023-02-18T23:02:08.284Z,99632.53
2023-02-18T23:04:36.839Z,99640.16
2023-02-18T23:07:05.442Z,99633.38
2023-02-18T23:09:34.101Z,99636.78
2023-02-18T23:12:02.505Z,99652.09
2023-02-18T23:14:31.058Z,99647.00
2023-02-18T23:17:17.738Z,99652.94
2023-02-18T23:19:48.760Z,99663.13
2023-02-18T23:22:20.522Z,99665.72
2023-02-18T23:24:49.654Z,99658.91
2023-02-18T23:27:19.198Z,99664.06
2023-02-18T23:29:48.552Z,99670.00
2023-02-18T23:32:18.850Z,99658.97
2023-02-18T23:34:47.373Z,99669.09
2023-02-18T23:37:17.235Z,99678.44
2023-02-18T23:39:47.545Z,99683.56
2023-02-18T23:42:17.078Z,99681.81
2023-02-18T23:44:50.176Z,99677.63
2023-02-18T23:47:20.119Z,99679.28
2023-02-18T23:49:48.517Z,99687.81
2023-02-18T23:52:17.002Z,99692.09
2023-02-18T23:54:45.361Z,99690.41
2023-02-18T23:57:14.017Z,99687.00
2023-02-18T23:59:42.605Z,99692.97
